createdAt,value
2023-01-15T00:04:06.533Z,1.25
2023-01-15T00:09:14.426Z,1.95
2023-01-15T00:14:16.430Z,1.73
2023-01-15T00:19:18.416Z,1.17
2023-01-15T00:24:40.181Z,1.73
2023-01-15T00:29:42.152Z,1.65
2023-01-15T00:34:44.144Z,2.30
2023-01-15T00:39:47.519Z,1.85
2023-01-15T00:44:49.706Z,2.50
2023-01-15T00:49:51.676Z,1.90
2023-01-15T00:54:55.060Z,1.75
2023-01-15T00:59:57.035Z,1.83
2023-01-15T01:04:58.988Z,1.58
2023-01-15T01:10:02.288Z,2.35
2023-01-15T01:15:05.058Z,2.00
2023-01-15T01:20:08.864Z,2.03
2023-01-15T01:25:12.151Z,2.00
2023-01-15T01:30:15.082Z,1.83
2023-01-15T01:35:17.270Z,1.67
2023-01-15T01:40:20.644Z,1.65
2023-01-15T01:45:26.878Z,1.85
2023-01-15T01:50:31.172Z,1.50
2023-01-15T01:55:36.284Z,1.52
2023-01-15T02:00:43.069Z,3.25
2023-01-15T02:05:50.384Z,2.20
2023-01-15T02:10:56.161Z,3.03
2023-01-15T02:16:06.046Z,1.33
2023-01-15T02:21:15.525Z,1.80
2023-01-15T02:26:38.935Z,1.25
2023-01-15T02:31:44.171Z,1.80
2023-01-15T02:36:50.456Z,2.00
2023-01-15T02:41:59.282Z,1.33
2023-01-15T02:47:04.418Z,1.75
2023-01-15T02:52:10.195Z,1.60
2023-01-15T02:57:16.087Z,2.40
2023-01-15T03:02:22.791Z,1.70
2023-01-15T03:07:32.012Z,1.40
2023-01-15T03:13:02.261Z,1.10
2023-01-15T03:18:07.901Z,1.15
2023-01-15T03:23:13.852Z,1.63
2023-01-15T03:28:22.787Z,1.30
2023-01-15T03:33:26.377Z,1.45
2023-01-15T03:38:30.914Z,1.33
2023-01-15T03:43:41.503Z,1.67
2023-01-15T03:48:51.215Z,1.35
2023-01-15T03:53:56.040Z,1.33
2023-01-15T03:59:03.991Z,1.35
2023-01-15T04:04:06.569Z,1.60
2023-01-15T04:09:11.881Z,1.52
2023-01-15T04:14:15.503Z,1.45
2023-01-15T04:19:17.469Z,1.08
2023-01-15T04:24:19.408Z,1.02
2023-01-15T04:29:22.805Z,1.08
2023-01-15T04:34:25.575Z,2.05
2023-01-15T04:39:27.545Z,1.60
2023-01-15T04:44:32.927Z,1.67
2023-01-15T04:49:35.185Z,1.42
2023-01-15T04:54:37.181Z,0.98
2023-01-15T04:59:40.512Z,1.30
2023-01-15T05:04:42.574Z,2.20
2023-01-15T05:09:44.719Z,1.98
2023-01-15T05:14:48.427Z,1.63
2023-01-15T05:19:50.392Z,1.10
2023-01-15T05:24:52.338Z,1.27
2023-01-15T05:29:55.615Z,1.90
2023-01-15T05:34:57.718Z,1.52
2023-01-15T05:39:59.671Z,1.45
2023-01-15T05:45:03.596Z,1.05
2023-01-15T05:50:06.287Z,1.63
2023-01-15T05:55:09.085Z,2.20
2023-01-15T06:00:14.097Z,1.60
2023-01-15T06:05:19.996Z,1.88
2023-01-15T06:10:21.965Z,1.15
2023-01-15T06:15:25.273Z,1.67
2023-01-15T06:20:27.258Z,1.27
2023-01-15T06:25:29.266Z,1.85
2023-01-15T06:30:32.831Z,1.60
2023-01-15T06:40:37.227Z,2.10
2023-01-15T06:45:59.644Z,2.92
2023-01-15T06:56:03.505Z,2.53
2023-01-15T07:01:12.016Z,1.65
2023-01-15T07:06:14.079Z,1.88
2023-01-15T07:11:17.679Z,1.50
2023-01-15T07:16:27.662Z,1.58
2023-01-15T07:21:30.828Z,1.75
2023-01-15T07:26:33.111Z,1.75
2023-01-15T07:31:36.612Z,1.00
2023-01-15T07:36:38.801Z,1.45
2023-01-15T07:41:59.503Z,1.60
2023-01-15T07:47:22.036Z,1.48
2023-01-15T07:52:24.015Z,1.65
2023-01-15T07:57:25.962Z,2.08
2023-01-15T08:02:29.329Z,1.42
2023-01-15T08:07:36.186Z,1.05
2023-01-15T08:12:57.658Z,1.27
2023-01-15T08:18:01.104Z,0.88
2023-01-15T08:23:03.233Z,1.33
2023-01-15T08:28:05.457Z,1.63
2023-01-15T08:33:08.998Z,0.90
2023-01-15T08:38:11.085Z,1.05
2023-01-15T08:43:13.202Z,1.50
2023-01-15T08:48:16.515Z,1.00
2023-01-15T08:53:20.371Z,1.00
2023-01-15T08:58:22.905Z,1.30
2023-01-15T09:03:26.189Z,1.05
2023-01-15T09:08:29.299Z,0.80
2023-01-15T09:13:31.592Z,0.90
2023-01-15T09:18:36.028Z,1.08
2023-01-15T09:23:38.616Z,1.48
2023-01-15T09:28:40.612Z,1.58
2023-01-15T09:33:43.925Z,1.23
2023-01-15T09:38:46.087Z,2.13
2023-01-15T09:43:56.500Z,1.80
2023-01-15T09:49:14.844Z,1.10
2023-01-15T09:54:42.892Z,1.17
2023-01-15T09:59:47.886Z,1.33
2023-01-15T10:04:56.788Z,1.60
2023-01-15T10:10:02.967Z,1.10
2023-01-15T10:15:15.499Z,1.25
2023-01-15T10:20:35.054Z,1.08
2023-01-15T10:25:46.894Z,1.30
2023-01-15T10:30:53.207Z,1.80
2023-01-15T10:36:00.832Z,1.27
2023-01-15T10:41:18.200Z,1.67
2023-01-15T10:46:27.075Z,0.98
2023-01-15T10:51:34.818Z,1.42
2023-01-15T10:56:41.204Z,1.52
2023-01-15T11:01:43.311Z,1.40
2023-01-15T11:06:46.985Z,1.25
2023-01-15T11:12:00.900Z,1.17
2023-01-15T11:17:08.961Z,2.42
2023-01-15T11:22:14.889Z,1.42
2023-01-15T11:27:20.117Z,1.27
2023-01-15T11:32:28.223Z,2.10
2023-01-15T11:37:31.596Z,1.67
2023-01-15T11:42:55.208Z,2.05
2023-01-15T11:48:16.146Z,1.48
2023-01-15T11:53:23.936Z,1.67
2023-01-15T11:58:27.952Z,2.28
2023-01-15T12:03:34.610Z,1.35
2023-01-15T12:08:51.723Z,1.77
2023-01-15T12:14:02.282Z,1.08
2023-01-15T12:19:15.481Z,1.85
2023-01-15T12:24:34.750Z,1.13
2023-01-15T12:29:44.651Z,1.88
2023-01-15T12:34:51.745Z,2.05
2023-01-15T12:39:59.093Z,1.60
2023-01-15T12:45:04.888Z,1.85
2023-01-15T12:50:22.402Z,2.13
2023-01-15T12:55:29.189Z,2.15
2023-01-15T13:00:37.882Z,1.40
2023-01-15T13:05:47.691Z,1.98
2023-01-15T13:16:09.673Z,1.67
2023-01-15T13:21:14.360Z,1.77
2023-01-15T13:26:34.563Z,1.98
2023-01-15T13:31:52.907Z,2.10
2023-01-15T13:36:59.309Z,1.90
2023-01-15T13:42:22.467Z,2.13
2023-01-15T13:47:28.027Z,1.85
2023-01-15T13:52:33.202Z,1.83
2023-01-15T13:57:40.340Z,2.25
2023-01-15T14:02:52.103Z,1.85
2023-01-15T14:07:54.270Z,2.50
2023-01-15T14:13:13.632Z,1.88
2023-01-15T14:18:27.496Z,1.92
2023-01-15T14:23:58.478Z,2.30
2023-01-15T14:29:15.934Z,2.10
2023-01-15T14:34:22.072Z,2.70
2023-01-15T14:39:32.241Z,2.05
2023-01-15T14:44:44.100Z,1.23
2023-01-15T14:49:49.772Z,1.48
2023-01-15T14:54:53.008Z,1.88
2023-01-15T15:00:00.685Z,2.20
2023-01-15T15:05:08.900Z,2.13
2023-01-15T15:10:21.237Z,1.48
2023-01-15T15:15:39.501Z,2.08
2023-01-15T15:20:51.538Z,1.30
2023-01-15T15:25:56.539Z,1.63
2023-01-15T15:31:01.614Z,2.10
2023-01-15T15:36:05.475Z,1.63
2023-01-15T15:46:44.635Z,1.35
2023-01-15T15:51:50.648Z,1.42
2023-01-15T15:56:59.240Z,1.33
2023-01-15T16:02:16.517Z,1.70
2023-01-15T16:07:25.162Z,1.10
2023-01-15T16:12:30.582Z,1.70
2023-01-15T16:17:35.067Z,1.73
2023-01-15T16:22:37.214Z,1.58
2023-01-15T16:27:39.242Z,1.50
2023-01-15T16:32:44.509Z,1.10
2023-01-15T16:37:48.785Z,1.05
2023-01-15T16:43:02.635Z,1.15
2023-01-15T16:48:25.600Z,1.13
2023-01-15T16:53:31.463Z,1.75
2023-01-15T16:58:36.453Z,1.40
2023-01-15T17:03:41.082Z,0.70
2023-01-15T17:08:47.327Z,0.95
2023-01-15T17:13:49.389Z,1.42
2023-01-15T17:18:52.852Z,1.42
2023-01-15T17:23:56.617Z,0.52
2023-01-15T17:28:58.877Z,1.08
2023-01-15T17:34:03.507Z,0.68
2023-01-15T17:39:05.587Z,0.32
2023-01-15T17:44:09.567Z,0.57
2023-01-15T17:49:12.931Z,0.45
2023-01-15T17:54:34.895Z,0.55
2023-01-15T17:59:55.491Z,1.45
2023-01-15T18:05:17.782Z,1.75
2023-01-15T18:10:21.139Z,1.05
2023-01-15T18:15:23.111Z,0.30
2023-01-15T18:20:26.432Z,0.22
2023-01-15T18:25:28.577Z,0.43
2023-01-15T18:30:32.319Z,0.50
2023-01-15T18:40:37.488Z,0.17
2023-01-15T18:45:57.994Z,0.30
2023-01-15T18:51:07.866Z,0.30
2023-01-15T18:56:09.864Z,0.20
2023-01-15T19:01:12.668Z,0.22
2023-01-15T19:06:16.092Z,0.60
2023-01-15T19:11:18.229Z,0.30
2023-01-15T19:16:38.918Z,0.20
2023-01-15T19:21:42.959Z,0.40
2023-01-15T19:26:45.037Z,0.20
2023-01-15T19:31:47.087Z,0.25
2023-01-15T19:36:50.619Z,0.68
2023-01-15T19:42:11.421Z,0.10
2023-01-15T19:47:33.411Z,0.25
2023-01-15T19:52:37.718Z,0.75
2023-01-15T19:57:39.946Z,0.40
2023-01-15T20:02:42.329Z,0.30
2023-01-15T20:07:45.806Z,0.30
2023-01-15T20:13:06.742Z,0.20
2023-01-15T20:18:08.765Z,0.40
2023-01-15T20:23:12.118Z,0.30
2023-01-15T20:28:14.193Z,0.40
2023-01-15T20:33:16.195Z,0.22
2023-01-15T20:38:19.688Z,0.28
2023-01-15T20:43:40.564Z,0.22
2023-01-15T20:49:01.328Z,0.40
2023-01-15T20:54:04.773Z,0.77
2023-01-15T20:59:06.763Z,0.38
2023-01-15T21:04:09.811Z,0.60
2023-01-15T21:09:13.159Z,0.60
2023-01-15T21:14:15.512Z,0.50
2023-01-15T21:19:17.583Z,0.65
2023-01-15T21:24:21.113Z,0.80
2023-01-15T21:29:24.285Z,0.60
2023-01-15T21:34:26.478Z,0.55
2023-01-15T21:39:29.788Z,0.47
2023-01-15T21:44:32.725Z,1.40
2023-01-15T21:49:35.072Z,0.63
2023-01-15T21:54:38.471Z,1.30
2023-01-15T21:59:41.100Z,0.57
2023-01-15T22:04:45.987Z,1.02
2023-01-15T22:09:49.373Z,0.85
2023-01-15T22:14:53.624Z,1.10
2023-01-15T22:19:55.653Z,0.75
2023-01-15T22:24:59.080Z,1.10
2023-01-15T22:30:01.335Z,0.30
2023-01-15T22:35:03.651Z,0.47
2023-01-15T22:40:08.804Z,0.75
2023-01-15T22:45:10.844Z,0.82
2023-01-15T22:50:12.838Z,1.08
2023-01-15T22:55:16.305Z,0.88
2023-01-15T23:00:18.622Z,0.70
2023-01-15T23:05:21.070Z,0.70
2023-01-15T23:10:24.369Z,0.32
2023-01-15T23:15:26.628Z,0.57
2023-01-15T23:20:28.637Z,0.52
2023-01-15T23:25:31.923Z,0.65
2023-01-15T23:30:33.938Z,0.63
2023-01-15T23:35:35.929Z,0.60
2023-01-15T23:40:40.726Z,0.80
2023-01-15T23:46:01.449Z,0.25
2023-01-15T23:51:03.702Z,0.57
2023-01-15T23:56:08.055Z,0.60
